sensor_id;sensor_type;location;lat;lon;timestamp;P1;durP1;ratioP1;P2;durP2;ratioP2
673;SDS011;319;48.764;9.174;2023-04-03T00:01:49;7.50;;;7.30;;
673;SDS011;319;48.764;9.174;2023-04-03T00:04:18;7.50;;;7.30;;
673;SDS011;319;48.764;9.174;2023-04-03T00:06:45;7.40;;;7.20;;
673;SDS011;319;48.764;9.174;2023-04-03T00:09:12;7.40;;;7.20;;
673;SDS011;319;48.764;9.174;2023-04-03T00:11:39;7.30;;;7.10;;
673;SDS011;319;48.764;9.174;2023-04-03T00:14:06;7.73;;;7.53;;
673;SDS011;319;48.764;9.174;2023-04-03T00:16:33;7.40;;;7.20;;
673;SDS011;319;48.764;9.174;2023-04-03T00:19:00;8.63;;;8.43;;
673;SDS011;319;48.764;9.174;2023-04-03T00:21:28;8.50;;;8.30;;
673;SDS011;319;48.764;9.174;2023-04-03T00:23:55;8.70;;;8.50;;
673;SDS011;319;48.764;9.174;2023-04-03T00:26:22;8.60;;;8.40;;
673;SDS011;319;48.764;9.174;2023-04-03T00:28:49;8.60;;;8.40;;
673;SDS011;319;48.764;9.174;2023-04-03T00:31:16;8.30;;;8.10;;
673;SDS011;319;48.764;9.174;2023-04-03T00:33:43;7.50;;;7.30;;
673;SDS011;319;48.764;9.174;2023-04-03T00:36:10;7.40;;;7.20;;
673;SDS011;319;48.764;9.174;2023-04-03T00:38:40;8.30;;;8.10;;
673;SDS011;319;48.764;9.174;2023-04-03T00:41:07;8.00;;;7.80;;
673;SDS011;319;48.764;9.174;2023-04-03T00:43:34;8.20;;;8.00;;
673;SDS011;319;48.764;9.174;2023-04-03T00:46:01;8.20;;;8.00;;
673;SDS011;319;48.764;9.174;2023-04-03T00:48:29;8.00;;;7.80;;
673;SDS011;319;48.764;9.174;2023-04-03T00:50:58;7.40;;;7.20;;
673;SDS011;319;48.764;9.174;2023-04-03T00:53:28;7.60;;;7.40;;
673;SDS011;319;48.764;9.174;2023-04-03T00:56:00;7.60;;;7.40;;
673;SDS011;319;48.764;9.174;2023-04-03T00:58:32;7.50;;;7.30;;
673;SDS011;319;48.764;9.174;2023-04-03T01:01:03;6.40;;;6.30;;
673;SDS011;319;48.764;9.174;2023-04-03T01:03:33;6.03;;;5.93;;
673;SDS011;319;48.764;9.174;2023-04-03T01:06:01;8.90;;;8.70;;
673;SDS011;319;48.764;9.174;2023-04-03T01:08:28;8.90;;;8.70;;
673;SDS011;319;48.764;9.174;2023-04-03T01:10:56;8.50;;;8.30;;
673;SDS011;319;48.764;9.174;2023-04-03T01:13:25;8.90;;;8.70;;
673;SDS011;319;48.764;9.174;2023-04-03T01:15:54;8.87;;;8.67;;
673;SDS011;319;48.764;9.174;2023-04-03T01:18:21;8.40;;;8.20;;
673;SDS011;319;48.764;9.174;2023-04-03T01:26:58;7.30;;;7.10;;
673;SDS011;319;48.764;9.174;2023-04-03T01:29:28;6.33;;;6.23;;
673;SDS011;319;48.764;9.174;2023-04-03T01:31:57;2.83;;;2.80;;
673;SDS011;319;48.764;9.174;2023-04-03T01:34:25;1.30;;;1.30;;
673;SDS011;319;48.764;9.174;2023-04-03T01:36:52;1.20;;;1.20;;
673;SDS011;319;48.764;9.174;2023-04-03T01:39:19;1.20;;;1.20;;
673;SDS011;319;48.764;9.174;2023-04-03T01:41:47;1.17;;;1.17;;
673;SDS011;319;48.764;9.174;2023-04-03T01:44:14;1.30;;;1.30;;
673;SDS011;319;48.764;9.174;2023-04-03T01:46:41;1.30;;;1.30;;
673;SDS011;319;48.764;9.174;2023-04-03T01:49:09;1.20;;;1.20;;
673;SDS011;319;48.764;9.174;2023-04-03T01:51:36;1.20;;;1.20;;
673;SDS011;319;48.764;9.174;2023-04-03T01:54:03;1.30;;;1.30;;
673;SDS011;319;48.764;9.174;2023-04-03T01:56:30;1.20;;;1.20;;
673;SDS011;319;48.764;9.174;2023-04-03T01:58:57;1.23;;;1.23;;
673;SDS011;319;48.764;9.174;2023-04-03T02:01:24;1.20;;;1.20;;
673;SDS011;319;48.764;9.174;2023-04-03T02:03:51;1.30;;;1.30;;
673;SDS011;319;48.764;9.174;2023-04-03T02:06:20;1.30;;;1.30;;
673;SDS011;319;48.764;9.174;2023-04-03T02:08:46;1.20;;;1.20;;
673;SDS011;319;48.764;9.174;2023-04-03T02:11:13;1.20;;;1.20;;
673;SDS011;319;48.764;9.174;2023-04-03T02:13:41;1.20;;;1.20;;
673;SDS011;319;48.764;9.174;2023-04-03T02:16:08;1.30;;;1.30;;
673;SDS011;319;48.764;9.174;2023-04-03T02:18:36;1.30;;;1.30;;
673;SDS011;319;48.764;9.174;2023-04-03T02:21:03;1.20;;;1.20;;
673;SDS011;319;48.764;9.174;2023-04-03T02:23:32;1.20;;;1.20;;
673;SDS011;319;48.764;9.174;2023-04-03T02:26:05;1.20;;;1.20;;
673;SDS011;319;48.764;9.174;2023-04-03T02:28:33;1.20;;;1.20;;
673;SDS011;319;48.764;9.174;2023-04-03T02:30:59;1.30;;;1.30;;
673;SDS011;319;48.764;9.174;2023-04-03T02:33:27;1.20;;;1.20;;
673;SDS011;319;48.764;9.174;2023-04-03T02:35:57;1.10;;;1.10;;
673;SDS011;319;48.764;9.174;2023-04-03T02:38:24;1.30;;;1.30;;
673;SDS011;319;48.764;9.174;2023-04-03T02:40:53;3.50;;;3.40;;
673;SDS011;319;48.764;9.174;2023-04-03T02:43:25;4.10;;;4.00;;
673;SDS011;319;48.764;9.174;2023-04-03T02:45:53;4.10;;;4.00;;
673;SDS011;319;48.764;9.174;2023-04-03T02:48:20;4.07;;;3.97;;
673;SDS011;319;48.764;9.174;2023-04-03T02:50:47;3.90;;;3.80;;
673;SDS011;319;48.764;9.174;2023-04-03T02:53:14;3.50;;;3.40;;
673;SDS011;319;48.764;9.174;2023-04-03T02:55:41;4.10;;;4.00;;
673;SDS011;319;48.764;9.174;2023-04-03T02:58:09;3.90;;;3.80;;
673;SDS011;319;48.764;9.174;2023-04-03T03:00:36;4.03;;;3.93;;
673;SDS011;319;48.764;9.174;2023-04-03T03:03:04;3.67;;;3.57;;
673;SDS011;319;48.764;9.174;2023-04-03T03:05:31;3.93;;;3.83;;
673;SDS011;319;48.764;9.174;2023-04-03T03:07:57;3.70;;;3.60;;
673;SDS011;319;48.764;9.174;2023-04-03T03:10:24;2.93;;;2.90;;
673;SDS011;319;48.764;9.174;2023-04-03T03:12:51;4.13;;;4.03;;
673;SDS011;319;48.764;9.174;2023-04-03T03:15:20;4.10;;;4.00;;
673;SDS011;319;48.764;9.174;2023-04-03T03:17:46;4.30;;;4.20;;
673;SDS011;319;48.764;9.174;2023-04-03T03:20:13;4.47;;;4.37;;
673;SDS011;319;48.764;9.174;2023-04-03T03:22:41;4.30;;;4.20;;
673;SDS011;319;48.764;9.174;2023-04-03T03:25:08;3.97;;;3.87;;
673;SDS011;319;48.764;9.174;2023-04-03T03:27:35;4.50;;;4.40;;
673;SDS011;319;48.764;9.174;2023-04-03T03:30:02;4.37;;;4.27;;
673;SDS011;319;48.764;9.174;2023-04-03T03:32:31;6.00;;;5.90;;
673;SDS011;319;48.764;9.174;2023-04-03T03:34:58;6.50;;;6.40;;
673;SDS011;319;48.764;9.174;2023-04-03T03:37:25;6.30;;;6.20;;
673;SDS011;319;48.764;9.174;2023-04-03T03:39:52;8.37;;;8.17;;
673;SDS011;319;48.764;9.174;2023-04-03T03:42:19;7.40;;;7.20;;
673;SDS011;319;48.764;9.174;2023-04-03T03:44:47;4.40;;;4.30;;
673;SDS011;319;48.764;9.174;2023-04-03T03:47:14;4.30;;;4.20;;
673;SDS011;319;48.764;9.174;2023-04-03T03:49:42;4.60;;;4.50;;
673;SDS011;319;48.764;9.174;2023-04-03T03:52:09;5.07;;;4.97;;
673;SDS011;319;48.764;9.174;2023-04-03T03:54:36;3.43;;;3.33;;
673;SDS011;319;48.764;9.174;2023-04-03T03:57:03;3.90;;;3.80;;
673;SDS011;319;48.764;9.174;2023-04-03T03:59:30;3.90;;;3.80;;
673;SDS011;319;48.764;9.174;2023-04-03T04:01:57;3.80;;;3.70;;
673;SDS011;319;48.764;9.174;2023-04-03T04:04:23;4.90;;;4.80;;
673;SDS011;319;48.764;9.174;2023-04-03T04:06:52;4.83;;;4.73;;
673;SDS011;319;48.764;9.174;2023-04-03T04:09:19;4.53;;;4.43;;
673;SDS011;319;48.764;9.174;2023-04-03T04:11:46;4.60;;;4.50;;
673;SDS011;319;48.764;9.174;2023-04-03T04:14:13;4.10;;;4.00;;
673;SDS011;319;48.764;9.174;2023-04-03T04:16:40;4.70;;;4.60;;
673;SDS011;319;48.764;9.174;2023-04-03T04:19:07;4.90;;;4.80;;
673;SDS011;319;48.764;9.174;2023-04-03T04:21:34;4.80;;;4.70;;
673;SDS011;319;48.764;9.174;2023-04-03T04:24:02;3.90;;;3.80;;
673;SDS011;319;48.764;9.174;2023-04-03T04:26:35;3.90;;;3.80;;
673;SDS011;319;48.764;9.174;2023-04-03T04:29:02;4.20;;;4.10;;
673;SDS011;319;48.764;9.174;2023-04-03T04:31:29;2.43;;;2.43;;
673;SDS011;319;48.764;9.174;2023-04-03T04:33:56;1.40;;;1.40;;
673;SDS011;319;48.764;9.174;2023-04-03T04:36:23;1.30;;;1.30;;
673;SDS011;319;48.764;9.174;2023-04-03T04:38:50;1.27;;;1.27;;
673;SDS011;319;48.764;9.174;2023-04-03T04:41:19;1.30;;;1.30;;
673;SDS011;319;48.764;9.174;2023-04-03T04:43:47;1.30;;;1.30;;
673;SDS011;319;48.764;9.174;2023-04-03T04:46:14;1.20;;;1.20;;
673;SDS011;319;48.764;9.174;2023-04-03T04:48:43;1.20;;;1.20;;
673;SDS011;319;48.764;9.174;2023-04-03T04:51:11;1.30;;;1.30;;
673;SDS011;319;48.764;9.174;2023-04-03T04:53:38;1.30;;;1.30;;
673;SDS011;319;48.764;9.174;2023-04-03T04:56:05;1.20;;;1.20;;
673;SDS011;319;48.764;9.174;2023-04-03T04:58:33;1.30;;;1.30;;
673;SDS011;319;48.764;9.174;2023-04-03T05:01:00;1.20;;;1.20;;
673;SDS011;319;48.764;9.174;2023-04-03T05:03:27;1.20;;;1.20;;
673;SDS011;319;48.764;9.174;2023-04-03T05:05:54;1.40;;;1.40;;
673;SDS011;319;48.764;9.174;2023-04-03T05:08:21;1.30;;;1.30;;
673;SDS011;319;48.764;9.174;2023-04-03T05:10:48;1.10;;;1.10;;
673;SDS011;319;48.764;9.174;2023-04-03T05:13:15;1.30;;;1.30;;
673;SDS011;319;48.764;9.174;2023-04-03T05:15:43;1.30;;;1.30;;
673;SDS011;319;48.764;9.174;2023-04-03T05:18:10;1.20;;;1.20;;
673;SDS011;319;48.764;9.174;2023-04-03T05:20:37;1.30;;;1.30;;
673;SDS011;319;48.764;9.174;2023-04-03T05:23:04;1.30;;;1.30;;
673;SDS011;319;48.764;9.174;2023-04-03T05:25:31;1.20;;;1.20;;
673;SDS011;319;48.764;9.174;2023-04-03T05:27:58;1.30;;;1.30;;
673;SDS011;319;48.764;9.174;2023-04-03T05:30:25;1.30;;;1.30;;
673;SDS011;319;48.764;9.174;2023-04-03T05:32:53;1.20;;;1.20;;
673;SDS011;319;48.764;9.174;2023-04-03T05:35:20;1.20;;;1.20;;
673;SDS011;319;48.764;9.174;2023-04-03T05:37:48;1.20;;;1.20;;
673;SDS011;319;48.764;9.174;2023-04-03T05:40:15;1.20;;;1.20;;
673;SDS011;319;48.764;9.174;2023-04-03T05:42:43;1.23;;;1.23;;
673;SDS011;319;48.764;9.174;2023-04-03T05:45:10;1.30;;;1.30;;
673;SDS011;319;48.764;9.174;2023-04-03T05:47:37;1.20;;;1.20;;
673;SDS011;319;48.764;9.174;2023-04-03T05:50:06;1.20;;;1.20;;
673;SDS011;319;48.764;9.174;2023-04-03T05:52:35;1.30;;;1.30;;
673;SDS011;319;48.764;9.174;2023-04-03T05:55:04;1.20;;;1.20;;
673;SDS011;319;48.764;9.174;2023-04-03T05:57:32;1.10;;;1.10;;
673;SDS011;319;48.764;9.174;2023-04-03T05:59:59;1.20;;;1.20;;
673;SDS011;319;48.764;9.174;2023-04-03T06:02:26;1.30;;;1.30;;
673;SDS011;319;48.764;9.174;2023-04-03T06:04:52;1.20;;;1.20;;
673;SDS011;319;48.764;9.174;2023-04-03T06:07:22;1.30;;;1.30;;
673;SDS011;319;48.764;9.174;2023-04-03T06:09:54;5.00;;;4.90;;
673;SDS011;319;48.764;9.174;2023-04-03T06:12:22;4.30;;;4.20;;
673;SDS011;319;48.764;9.174;2023-04-03T06:14:50;4.30;;;4.20;;
673;SDS011;319;48.764;9.174;2023-04-03T06:17:17;5.23;;;5.13;;
673;SDS011;319;48.764;9.174;2023-04-03T06:19:44;4.20;;;4.10;;
673;SDS011;319;48.764;9.174;2023-04-03T06:22:11;4.73;;;4.63;;
673;SDS011;319;48.764;9.174;2023-04-03T06:24:40;5.13;;;5.03;;
673;SDS011;319;48.764;9.174;2023-04-03T06:27:09;5.20;;;5.10;;
673;SDS011;319;48.764;9.174;2023-04-03T06:29:36;4.70;;;4.60;;
673;SDS011;319;48.764;9.174;2023-04-03T06:32:03;4.90;;;4.80;;
673;SDS011;319;48.764;9.174;2023-04-03T06:34:30;6.20;;;6.10;;
673;SDS011;319;48.764;9.174;2023-04-03T06:36:57;6.17;;;6.07;;
673;SDS011;319;48.764;9.174;2023-04-03T06:39:24;4.90;;;4.80;;
673;SDS011;319;48.764;9.174;2023-04-03T06:41:53;6.10;;;6.00;;
673;SDS011;319;48.764;9.174;2023-04-03T06:44:20;5.50;;;5.40;;
673;SDS011;319;48.764;9.174;2023-04-03T06:46:47;5.30;;;5.20;;
673;SDS011;319;48.764;9.174;2023-04-03T06:49:16;4.30;;;4.20;;
673;SDS011;319;48.764;9.174;2023-04-03T06:51:43;4.80;;;4.70;;
673;SDS011;319;48.764;9.174;2023-04-03T06:54:10;4.77;;;4.67;;
673;SDS011;319;48.764;9.174;2023-04-03T06:56:37;4.00;;;3.90;;
673;SDS011;319;48.764;9.174;2023-04-03T06:59:06;3.70;;;3.60;;
673;SDS011;319;48.764;9.174;2023-04-03T07:01:33;4.30;;;4.20;;
673;SDS011;319;48.764;9.174;2023-04-03T07:04:00;4.60;;;4.50;;
673;SDS011;319;48.764;9.174;2023-04-03T07:06:30;4.30;;;4.20;;
673;SDS011;319;48.764;9.174;2023-04-03T07:08:58;4.53;;;4.43;;
673;SDS011;319;48.764;9.174;2023-04-03T07:11:26;4.80;;;4.70;;
673;SDS011;319;48.764;9.174;2023-04-03T07:13:53;4.70;;;4.60;;
673;SDS011;319;48.764;9.174;2023-04-03T07:16:21;4.80;;;4.70;;
673;SDS011;319;48.764;9.174;2023-04-03T07:18:51;4.90;;;4.80;;
673;SDS011;319;48.764;9.174;2023-04-03T07:21:18;6.10;;;6.00;;
673;SDS011;319;48.764;9.174;2023-04-03T07:23:45;5.53;;;5.43;;
673;SDS011;319;48.764;9.174;2023-04-03T07:26:12;5.80;;;5.70;;
673;SDS011;319;48.764;9.174;2023-04-03T07:28:40;5.10;;;5.00;;
673;SDS011;319;48.764;9.174;2023-04-03T07:31:10;5.80;;;5.70;;
673;SDS011;319;48.764;9.174;2023-04-03T07:33:39;6.13;;;6.03;;
673;SDS011;319;48.764;9.174;2023-04-03T07:36:07;6.33;;;6.23;;
673;SDS011;319;48.764;9.174;2023-04-03T07:38:36;5.60;;;5.50;;
673;SDS011;319;48.764;9.174;2023-04-03T07:41:03;5.70;;;5.60;;
673;SDS011;319;48.764;9.174;2023-04-03T07:43:31;5.10;;;5.00;;
673;SDS011;319;48.764;9.174;2023-04-03T07:45:58;5.00;;;4.90;;
673;SDS011;319;48.764;9.174;2023-04-03T07:48:26;5.80;;;5.70;;
673;SDS011;319;48.764;9.174;2023-04-03T07:50:58;5.80;;;5.70;;
673;SDS011;319;48.764;9.174;2023-04-03T07:53:26;7.23;;;7.03;;
673;SDS011;319;48.764;9.174;2023-04-03T07:55:53;6.37;;;6.27;;
673;SDS011;319;48.764;9.174;2023-04-03T07:58:21;8.23;;;8.03;;
673;SDS011;319;48.764;9.174;2023-04-03T08:00:48;8.47;;;8.27;;
673;SDS011;319;48.764;9.174;2023-04-03T08:03:15;8.60;;;8.40;;
673;SDS011;319;48.764;9.174;2023-04-03T08:05:43;7.77;;;7.57;;
673;SDS011;319;48.764;9.174;2023-04-03T08:08:14;7.10;;;6.90;;
673;SDS011;319;48.764;9.174;2023-04-03T08:10:42;7.90;;;7.70;;
673;SDS011;319;48.764;9.174;2023-04-03T08:13:09;8.57;;;8.37;;
673;SDS011;319;48.764;9.174;2023-04-03T08:15:36;7.77;;;7.57;;
673;SDS011;319;48.764;9.174;2023-04-03T08:18:03;7.50;;;7.30;;
673;SDS011;319;48.764;9.174;2023-04-03T08:20:30;8.60;;;8.40;;
673;SDS011;319;48.764;9.174;2023-04-03T08:22:57;8.60;;;8.40;;
673;SDS011;319;48.764;9.174;2023-04-03T08:25:26;7.90;;;7.70;;
673;SDS011;319;48.764;9.174;2023-04-03T08:27:54;6.50;;;6.40;;
673;SDS011;319;48.764;9.174;2023-04-03T08:30:21;7.00;;;6.80;;
673;SDS011;319;48.764;9.174;2023-04-03T08:32:51;7.83;;;7.63;;
673;SDS011;319;48.764;9.174;2023-04-03T08:35:18;8.20;;;8.00;;
673;SDS011;319;48.764;9.174;2023-04-03T08:37:46;7.37;;;7.17;;
673;SDS011;319;48.764;9.174;2023-04-03T08:40:14;7.90;;;7.70;;
673;SDS011;319;48.764;9.174;2023-04-03T08:42:49;7.90;;;7.70;;
673;SDS011;319;48.764;9.174;2023-04-03T08:45:25;7.13;;;6.93;;
673;SDS011;319;48.764;9.174;2023-04-03T08:48:00;6.93;;;6.73;;
673;SDS011;319;48.764;9.174;2023-04-03T08:50:33;7.20;;;7.00;;
673;SDS011;319;48.764;9.174;2023-04-03T08:53:05;7.97;;;7.77;;
673;SDS011;319;48.764;9.174;2023-04-03T08:55:37;8.27;;;8.07;;
673;SDS011;319;48.764;9.174;2023-04-03T08:58:11;8.30;;;8.10;;
673;SDS011;319;48.764;9.174;2023-04-03T09:00:43;7.30;;;7.10;;
673;SDS011;319;48.764;9.174;2023-04-03T09:03:12;1.20;;;1.20;;
673;SDS011;319;48.764;9.174;2023-04-03T09:05:41;1.20;;;1.20;;
673;SDS011;319;48.764;9.174;2023-04-03T09:08:23;1.20;;;1.20;;
673;SDS011;319;48.764;9.174;2023-04-03T09:10:57;1.20;;;1.20;;
673;SDS011;319;48.764;9.174;2023-04-03T09:13:30;1.10;;;1.10;;
673;SDS011;319;48.764;9.174;2023-04-03T09:16:03;9.03;;;8.83;;
673;SDS011;319;48.764;9.174;2023-04-03T09:18:44;1.10;;;1.10;;
673;SDS011;319;48.764;9.174;2023-04-03T09:21:20;6.43;;;6.33;;
673;SDS011;319;48.764;9.174;2023-04-03T09:23:53;3.10;;;3.00;;
673;SDS011;319;48.764;9.174;2023-04-03T09:26:23;3.87;;;3.77;;
673;SDS011;319;48.764;9.174;2023-04-03T09:28:54;3.43;;;3.33;;
673;SDS011;319;48.764;9.174;2023-04-03T09:31:25;3.30;;;3.20;;
673;SDS011;319;48.764;9.174;2023-04-03T09:33:54;3.60;;;3.50;;
673;SDS011;319;48.764;9.174;2023-04-03T09:36:37;3.30;;;3.20;;
673;SDS011;319;48.764;9.174;2023-04-03T09:39:10;2.23;;;2.23;;
673;SDS011;319;48.764;9.174;2023-04-03T09:41:38;2.30;;;2.30;;
673;SDS011;319;48.764;9.174;2023-04-03T09:44:18;2.30;;;2.30;;
673;SDS011;319;48.764;9.174;2023-04-03T09:46:48;2.40;;;2.40;;
673;SDS011;319;48.764;9.174;2023-04-03T09:49:16;2.30;;;2.30;;
673;SDS011;319;48.764;9.174;2023-04-03T09:51:44;2.20;;;2.20;;
673;SDS011;319;48.764;9.174;2023-04-03T09:54:30;2.57;;;2.57;;
673;SDS011;319;48.764;9.174;2023-04-03T09:57:06;2.30;;;2.30;;
673;SDS011;319;48.764;9.174;2023-04-03T09:59:38;2.20;;;2.20;;
673;SDS011;319;48.764;9.174;2023-04-03T10:02:28;1.20;;;1.20;;
673;SDS011;319;48.764;9.174;2023-04-03T10:05:00;1.20;;;1.20;;
673;SDS011;319;48.764;9.174;2023-04-03T10:07:32;1.10;;;1.10;;
673;SDS011;319;48.764;9.174;2023-04-03T10:10:01;1.10;;;1.10;;
673;SDS011;319;48.764;9.174;2023-04-03T10:12:30;1.00;;;1.00;;
673;SDS011;319;48.764;9.174;2023-04-03T10:14:59;1.10;;;1.10;;
673;SDS011;319;48.764;9.174;2023-04-03T10:17:31;1.20;;;1.20;;
673;SDS011;319;48.764;9.174;2023-04-03T10:20:07;1.10;;;1.10;;
673;SDS011;319;48.764;9.174;2023-04-03T10:22:50;1.10;;;1.10;;
673;SDS011;319;48.764;9.174;2023-04-03T10:25:25;4.07;;;3.97;;
673;SDS011;319;48.764;9.174;2023-04-03T10:28:00;7.30;;;7.10;;
673;SDS011;319;48.764;9.174;2023-04-03T10:30:34;8.90;;;8.70;;
673;SDS011;319;48.764;9.174;2023-04-03T10:33:26;8.40;;;8.20;;
673;SDS011;319;48.764;9.174;2023-04-03T10:36:07;8.10;;;7.90;;
673;SDS011;319;48.764;9.174;2023-04-03T10:38:44;8.60;;;8.40;;
673;SDS011;319;48.764;9.174;2023-04-03T10:41:20;8.30;;;8.10;;
673;SDS011;319;48.764;9.174;2023-04-03T10:43:58;7.10;;;6.90;;
673;SDS011;319;48.764;9.174;2023-04-03T10:46:35;8.20;;;8.00;;
673;SDS011;319;48.764;9.174;2023-04-03T10:49:11;7.10;;;6.90;;
673;SDS011;319;48.764;9.174;2023-04-03T10:51:47;7.90;;;7.70;;
673;SDS011;319;48.764;9.174;2023-04-03T10:54:17;8.70;;;8.50;;
673;SDS011;319;48.764;9.174;2023-04-03T10:56:51;7.80;;;7.60;;
673;SDS011;319;48.764;9.174;2023-04-03T10:59:23;7.37;;;7.17;;
673;SDS011;319;48.764;9.174;2023-04-03T11:01:56;7.53;;;7.33;;
673;SDS011;319;48.764;9.174;2023-04-03T11:04:27;8.60;;;8.40;;
673;SDS011;319;48.764;9.174;2023-04-03T11:06:57;8.70;;;8.50;;
673;SDS011;319;48.764;9.174;2023-04-03T11:09:28;6.77;;;6.60;;
673;SDS011;319;48.764;9.174;2023-04-03T11:12:00;8.20;;;8.00;;
673;SDS011;319;48.764;9.174;2023-04-03T11:14:32;9.00;;;8.80;;
673;SDS011;319;48.764;9.174;2023-04-03T11:17:11;8.20;;;8.00;;
673;SDS011;319;48.764;9.174;2023-04-03T11:19:45;8.40;;;8.20;;
673;SDS011;319;48.764;9.174;2023-04-03T11:22:19;8.37;;;8.17;;
673;SDS011;319;48.764;9.174;2023-04-03T11:24:52;8.33;;;8.13;;
673;SDS011;319;48.764;9.174;2023-04-03T11:27:24;6.80;;;6.60;;
673;SDS011;319;48.764;9.174;2023-04-03T11:29:55;6.90;;;6.70;;
673;SDS011;319;48.764;9.174;2023-04-03T11:32:41;7.37;;;7.17;;
673;SDS011;319;48.764;9.174;2023-04-03T11:35:25;8.80;;;8.60;;
673;SDS011;319;48.764;9.174;2023-04-03T11:37:53;8.10;;;7.90;;
673;SDS011;319;48.764;9.174;2023-04-03T11:40:22;8.50;;;8.30;;
673;SDS011;319;48.764;9.174;2023-04-03T11:42:52;8.20;;;8.00;;
673;SDS011;319;48.764;9.174;2023-04-03T11:45:26;8.60;;;8.40;;
673;SDS011;319;48.764;9.174;2023-04-03T11:48:01;7.20;;;7.00;;
673;SDS011;319;48.764;9.174;2023-04-03T11:50:31;8.40;;;8.20;;
673;SDS011;319;48.764;9.174;2023-04-03T11:55:59;8.20;;;8.00;;
673;SDS011;319;48.764;9.174;2023-04-03T11:58:27;6.57;;;6.47;;
673;SDS011;319;48.764;9.174;2023-04-03T12:00:57;8.37;;;8.17;;
673;SDS011;319;48.764;9.174;2023-04-03T12:03:31;8.33;;;8.13;;
673;SDS011;319;48.764;9.174;2023-04-03T12:09:33;6.50;;;6.40;;
673;SDS011;319;48.764;9.174;2023-04-03T12:12:32;8.00;;;7.80;;
673;SDS011;319;48.764;9.174;2023-04-03T12:15:18;7.60;;;7.40;;
673;SDS011;319;48.764;9.174;2023-04-03T12:21:06;8.13;;;7.93;;
673;SDS011;319;48.764;9.174;2023-04-03T12:23:33;7.17;;;6.97;;
673;SDS011;319;48.764;9.174;2023-04-03T12:26:05;6.53;;;6.43;;
673;SDS011;319;48.764;9.174;2023-04-03T12:28:46;6.60;;;6.50;;
673;SDS011;319;48.764;9.174;2023-04-03T12:31:17;7.23;;;7.03;;
673;SDS011;319;48.764;9.174;2023-04-03T12:33:59;6.90;;;6.70;;
673;SDS011;319;48.764;9.174;2023-04-03T12:36:38;6.10;;;6.00;;
673;SDS011;319;48.764;9.174;2023-04-03T12:39:22;6.47;;;6.37;;
673;SDS011;319;48.764;9.174;2023-04-03T12:42:11;8.00;;;7.80;;
673;SDS011;319;48.764;9.174;2023-04-03T12:45:01;6.83;;;6.63;;
673;SDS011;319;48.764;9.174;2023-04-03T12:47:36;6.80;;;6.60;;
673;SDS011;319;48.764;9.174;2023-04-03T12:50:16;8.40;;;8.20;;
673;SDS011;319;48.764;9.174;2023-04-03T12:52:47;8.30;;;8.10;;
673;SDS011;319;48.764;9.174;2023-04-03T12:55:20;7.60;;;7.40;;
673;SDS011;319;48.764;9.174;2023-04-03T12:57:47;5.80;;;5.70;;
673;SDS011;319;48.764;9.174;2023-04-03T13:00:18;5.53;;;5.43;;
673;SDS011;319;48.764;9.174;2023-04-03T13:02:47;6.97;;;6.77;;
673;SDS011;319;48.764;9.174;2023-04-03T13:05:16;7.00;;;6.80;;
673;SDS011;319;48.764;9.174;2023-04-03T13:07:47;8.23;;;8.03;;
673;SDS011;319;48.764;9.174;2023-04-03T13:10:18;7.60;;;7.40;;
673;SDS011;319;48.764;9.174;2023-04-03T13:12:46;6.97;;;6.77;;
673;SDS011;319;48.764;9.174;2023-04-03T13:15:16;7.40;;;7.20;;
673;SDS011;319;48.764;9.174;2023-04-03T13:17:45;7.53;;;7.33;;
673;SDS011;319;48.764;9.174;2023-04-03T13:20:15;1.10;;;1.10;;
673;SDS011;319;48.764;9.174;2023-04-03T13:22:48;1.10;;;1.10;;
673;SDS011;319;48.764;9.174;2023-04-03T13:25:20;3.43;;;3.33;;
673;SDS011;319;48.764;9.174;2023-04-03T13:27:49;1.00;;;1.00;;
673;SDS011;319;48.764;9.174;2023-04-03T13:33:04;1.10;;;1.10;;
673;SDS011;319;48.764;9.174;2023-04-03T13:35:35;1.10;;;1.10;;
673;SDS011;319;48.764;9.174;2023-04-03T13:38:05;1.10;;;1.10;;
673;SDS011;319;48.764;9.174;2023-04-03T13:40:48;1.10;;;1.10;;
673;SDS011;319;48.764;9.174;2023-04-03T13:43:17;1.00;;;1.00;;
673;SDS011;319;48.764;9.174;2023-04-03T13:45:55;1.10;;;1.10;;
673;SDS011;319;48.764;9.174;2023-04-03T13:48:24;1.07;;;1.07;;
673;SDS011;319;48.764;9.174;2023-04-03T13:50:54;1.20;;;1.20;;
673;SDS011;319;48.764;9.174;2023-04-03T13:53:25;1.10;;;1.10;;
673;SDS011;319;48.764;9.174;2023-04-03T13:55:57;1.10;;;1.10;;
673;SDS011;319;48.764;9.174;2023-04-03T13:58:30;1.10;;;1.10;;
673;SDS011;319;48.764;9.174;2023-04-03T14:00:59;1.00;;;1.00;;
673;SDS011;319;48.764;9.174;2023-04-03T14:03:29;1.10;;;1.10;;
673;SDS011;319;48.764;9.174;2023-04-03T14:05:59;1.10;;;1.10;;
673;SDS011;319;48.764;9.174;2023-04-03T14:08:29;1.00;;;1.00;;
673;SDS011;319;48.764;9.174;2023-04-03T14:10:56;1.10;;;1.10;;
673;SDS011;319;48.764;9.174;2023-04-03T14:13:23;1.00;;;1.00;;
673;SDS011;319;48.764;9.174;2023-04-03T14:15:50;1.00;;;1.00;;
673;SDS011;319;48.764;9.174;2023-04-03T14:18:18;1.10;;;1.10;;
673;SDS011;319;48.764;9.174;2023-04-03T14:20:47;1.10;;;1.10;;
673;SDS011;319;48.764;9.174;2023-04-03T14:23:16;1.10;;;1.10;;
673;SDS011;319;48.764;9.174;2023-04-03T14:25:44;1.00;;;1.00;;
673;SDS011;319;48.764;9.174;2023-04-03T14:28:14;1.10;;;1.10;;
673;SDS011;319;48.764;9.174;2023-04-03T14:30:43;1.10;;;1.10;;
673;SDS011;319;48.764;9.174;2023-04-03T14:33:12;1.10;;;1.10;;
673;SDS011;319;48.764;9.174;2023-04-03T14:35:40;1.20;;;1.20;;
673;SDS011;319;48.764;9.174;2023-04-03T14:38:12;1.00;;;1.00;;
673;SDS011;319;48.764;9.174;2023-04-03T14:40:51;1.00;;;1.00;;
673;SDS011;319;48.764;9.174;2023-04-03T14:43:22;1.00;;;1.00;;
673;SDS011;319;48.764;9.174;2023-04-03T14:45:50;1.00;;;1.00;;
673;SDS011;319;48.764;9.174;2023-04-03T14:48:18;1.00;;;1.00;;
673;SDS011;319;48.764;9.174;2023-04-03T14:50:47;1.10;;;1.10;;
673;SDS011;319;48.764;9.174;2023-04-03T14:53:15;1.10;;;1.10;;
673;SDS011;319;48.764;9.174;2023-04-03T14:55:45;1.00;;;1.00;;
673;SDS011;319;48.764;9.174;2023-04-03T14:58:13;1.00;;;1.00;;
673;SDS011;319;48.764;9.174;2023-04-03T15:00:41;1.10;;;1.10;;
673;SDS011;319;48.764;9.174;2023-04-03T15:03:11;1.10;;;1.10;;
673;SDS011;319;48.764;9.174;2023-04-03T15:05:40;1.10;;;1.10;;
673;SDS011;319;48.764;9.174;2023-04-03T15:08:08;1.10;;;1.10;;
673;SDS011;319;48.764;9.174;2023-04-03T15:10:46;1.10;;;1.10;;
673;SDS011;319;48.764;9.174;2023-04-03T15:13:13;1.07;;;1.07;;
673;SDS011;319;48.764;9.174;2023-04-03T15:15:40;1.00;;;1.00;;
673;SDS011;319;48.764;9.174;2023-04-03T15:18:10;1.00;;;1.00;;
673;SDS011;319;48.764;9.174;2023-04-03T15:20:41;1.00;;;1.00;;
673;SDS011;319;48.764;9.174;2023-04-03T15:23:08;1.10;;;1.10;;
673;SDS011;319;48.764;9.174;2023-04-03T15:25:37;1.10;;;1.10;;
673;SDS011;319;48.764;9.174;2023-04-03T15:28:06;1.10;;;1.10;;
673;SDS011;319;48.764;9.174;2023-04-03T15:30:35;1.10;;;1.10;;
673;SDS011;319;48.764;9.174;2023-04-03T15:33:04;1.10;;;1.10;;
673;SDS011;319;48.764;9.174;2023-04-03T15:35:31;1.10;;;1.10;;
673;SDS011;319;48.764;9.174;2023-04-03T15:37:58;1.10;;;1.10;;
673;SDS011;319;48.764;9.174;2023-04-03T15:40:25;1.10;;;1.10;;
673;SDS011;319;48.764;9.174;2023-04-03T15:42:53;1.00;;;1.00;;
673;SDS011;319;48.764;9.174;2023-04-03T15:45:22;1.30;;;1.30;;
673;SDS011;319;48.764;9.174;2023-04-03T15:47:50;1.20;;;1.20;;
673;SDS011;319;48.764;9.174;2023-04-03T15:50:17;1.10;;;1.10;;
673;SDS011;319;48.764;9.174;2023-04-03T15:52:47;6.70;;;6.60;;
673;SDS011;319;48.764;9.174;2023-04-03T15:55:19;1.10;;;1.10;;
673;SDS011;319;48.764;9.174;2023-04-03T15:57:46;1.10;;;1.10;;
673;SDS011;319;48.764;9.174;2023-04-03T16:00:13;1.10;;;1.10;;
673;SDS011;319;48.764;9.174;2023-04-03T16:02:42;1.10;;;1.10;;
673;SDS011;319;48.764;9.174;2023-04-03T16:05:11;1.00;;;1.00;;
673;SDS011;319;48.764;9.174;2023-04-03T16:07:39;1.10;;;1.10;;
673;SDS011;319;48.764;9.174;2023-04-03T16:10:07;1.10;;;1.10;;
673;SDS011;319;48.764;9.174;2023-04-03T16:12:35;1.00;;;1.00;;
673;SDS011;319;48.764;9.174;2023-04-03T16:15:06;1.10;;;1.10;;
673;SDS011;319;48.764;9.174;2023-04-03T16:17:33;1.00;;;1.00;;
673;SDS011;319;48.764;9.174;2023-04-03T16:20:03;1.07;;;1.07;;